Data for 07/15/2013

Time Sea-Level Adjusted Pressure Absolute Pressure Temperature Relative Humidity Dew Point   
(mb) (inHg) (mb) (inHg) (C) (F) (%) (C) (F)
00:05 1021 30.15 850 25.1 20 68 49 9.1 48.3
00:10 1021 30.15 850 25.1 20.3 68.6 43 7.5 45.4
00:15 1020 30.12 849 25.07 20.8 69.5 44 8.4 47.1
00:20 1020 30.12 849 25.07 20.4 68.8 46 8.5 47.3
00:25 1020 30.12 849 25.07 20.1 68.2 48 8.9 48.1
00:30 1020 30.12 849 25.07 19.8 67.7 49 8.9 48.1
00:35 1020 30.12 849 25.07 19.7 67.4 49 8.8 47.9
00:40 1020 30.12 849 25.07 19.6 67.2 49 8.7 47.6
00:45 1020 30.12 849 25.07 19.4 67 50 8.9 48
00:50 1020 30.12 849 25.07 19.3 66.7 50 8.8 47.8
00:55 1020 30.12 849 25.07 19.2 66.5 51 8.9 48
01:00 1020 30.12 849 25.07 19 66.3 51 8.9 48
01:05 1020 30.12 849 25.07 18.9 66 52 8.9 48
01:10 1019 30.09 849 25.07 18.9 65.9 51 8.6 47.5
01:15 1019 30.09 849 25.07 19 66.1 50 8.5 47.3
01:20 1019 30.09 849 25.07 19 66.3 50 8.5 47.4
01:25 1019 30.09 849 25.07 19 66.2 50 8.5 47.4
01:30 1019 30.09 849 25.07 19 66.2 50 8.5 47.4
01:35 1019 30.09 849 25.07 19 66.2 50 8.4 47.1
01:40 1019 30.09 849 25.07 19 66.2 50 8.4 47.1
01:45 1019 30.09 849 25.07 18.9 66 50 8.5 47.3
01:50 1019 30.09 849 25.07 18.7 65.7 51 8.5 47.4
01:55 1019 30.09 849 25.07 18.7 65.6 51 8.4 47.1
02:00 1019 30.09 849 25.07 18.6 65.5 50 8.2 46.7
02:05 1019 30.09 849 25.07 18.7 65.6 51 8.4 47
02:10 1019 30.09 849 25.07 18.6 65.5 51 8.3 46.9
02:15 1019 30.09 849 25.07 18.6 65.6 50 8.1 46.6
02:20 1019 30.09 849 25.07 18.7 65.6 51 8.3 47
02:25 1019 30.09 848 25.04 18.6 65.5 50 8.1 46.6
02:30 1019 30.09 849 25.07 18.8 65.8 49 8 46.5
02:35 1019 30.09 849 25.07 18.8 65.8 49 8.1 46.5
02:40 1019 30.09 849 25.07 18.8 65.8 49 7.9 46.1
02:45 1020 30.12 849 25.07 18.8 65.8 49 7.8 46.1
02:50 1020 30.12 849 25.07 18.6 65.5 50 8 46.4
02:55 1020 30.12 849 25.07 18.4 65.1 50 7.8 46
03:00 1020 30.12 849 25.07 18.3 65 49 7.6 45.8
03:05 1020 30.12 849 25.07 18.3 64.9 50 7.8 46
03:10 1020 30.12 849 25.07 18.2 64.7 51 7.8 46.1
03:15 1020 30.12 849 25.07 17.9 64.3 51 7.8 46
03:20 1020 30.12 849 25.07 17.8 64 51 7.8 46
03:25 1020 30.12 849 25.07 17.7 63.8 52 7.8 46
03:30 1020 30.12 849 25.07 17.4 63.3 54 8.2 46.7
03:35 1020 30.12 849 25.07 16.9 62.4 56 8 46.4
03:40 1020 30.12 849 25.07 16.7 62 56 8 46.5
03:45 1020 30.12 849 25.07 16.6 61.9 57 8.2 46.8
03:50 1020 30.12 849 25.07 16.6 61.9 56 7.8 46.1
03:55 1020 30.12 849 25.07 16.5 61.7 56 7.8 46
04:00 1020 30.12 849 25.07 16.5 61.7 55 7.6 45.7
04:05 1020 30.12 849 25.07 16.4 61.5 54 7.2 44.9
04:10 1020 30.12 849 25.07 16.3 61.3 54 6.9 44.5
04:15 1020 30.12 849 25.07 16.1 61 54 6.8 44.3
04:20 1020 30.12 849 25.07 16 60.8 54 6.7 44.1
04:25 1020 30.12 849 25.07 16 60.7 54 6.7 44.1
04:30 1020 30.12 849 25.07 15.7 60.3 54 6.5 43.7
04:35 1020 30.12 849 25.07 15.4 59.7 55 6.6 43.8
04:40 1020 30.12 849 25.07 15.2 59.4 55 6.5 43.7
04:45 1020 30.12 849 25.07 15.2 59.4 55 6.3 43.3
04:50 1020 30.12 849 25.07 15.4 59.6 54 6.1 43
04:55 1020 30.12 850 25.1 15.4 59.8 55 6.6 43.8
05:00 1020 30.12 850 25.1 15.1 59.3 55 6.3 43.3
05:05 1020 30.12 850 25.1 14.9 58.9 54 5.8 42.5
05:10 1020 30.12 850 25.1 14.8 58.7 54 5.8 42.5
05:15 1020 30.12 850 25.1 14.9 58.8 54 5.8 42.5
05:20 1020 30.12 850 25.1 14.6 58.3 56 6.1 43
05:25 1020 30.12 850 25.1 14 57.2 60 6.4 43.6
05:30 1021 30.15 850 25.1 13.7 56.6 60 6.1 43
05:35 1021 30.15 850 25.1 13.7 56.6 58 5.7 42.3
05:40 1021 30.15 850 25.1 13.9 57 57 5.6 42.2
05:45 1021 30.15 850 25.1 14.5 58.1 54 5.5 41.9
05:50 1021 30.15 850 25.1 15 58.9 54 5.8 42.5
05:55 1021 30.15 850 25.1 14.9 58.7 57 6.4 43.6
06:00 1021 30.15 850 25.1 14.8 58.6 56 6.3 43.3
06:05 1021 30.15 850 25.1 14.6 58.2 56 5.9 42.6
06:10 1021 30.15 850 25.1 14.8 58.6 56 6.1 43
06:15 1021 30.15 850 25.1 14.9 58.8 55 6 42.9
06:20 1021 30.15 850 25.1 15.2 59.3 54 6.1 42.9
06:25 1021 30.15 850 25.1 15.4 59.8 55 6.5 43.7
06:30 1021 30.15 850 25.1 15.6 60.2 55 6.7 44.1
06:35 1021 30.15 850 25.1 16.1 60.9 54 6.9 44.5
06:40 1021 30.15 850 25.1 16.5 61.7 54 7.3 45.1
06:45 1021 30.15 850 25.1 16.8 62.2 53 7.3 45.1
06:50 1021 30.15 850 25.1 16.9 62.4 53 7.3 45.2
06:55 1021 30.15 850 25.1 17.3 63.2 52 7.4 45.4
07:00 1020 30.12 850 25.1 17.6 63.6 51 7.5 45.5
07:05 1020 30.12 850 25.1 17.9 64.1 52 8.1 46.5
07:10 1020 30.12 850 25.1 18.4 65.1 51 8 46.5
07:15 1021 30.15 850 25.1 18.7 65.6 50 8.2 46.7
07:20 1021 30.15 850 25.1 19.1 66.3 49 8.1 46.7
07:25 1021 30.15 850 25.1 18.8 65.8 48 7.7 45.8
07:30 1021 30.15 850 25.1 19.5 67.1 44 7 44.6
07:35 1020 30.12 850 25.1 19.5 67 47 7.9 46.1
07:40 1020 30.12 850 25.1 19.8 67.7 43 7.2 44.9
07:45 1020 30.12 850 25.1 20.4 68.6 42 7.2 44.9
07:50 1020 30.12 850 25.1 21 69.9 41 7.6 45.7
07:55 1020 30.12 850 25.1 21.9 71.4 38 7 44.7
08:00 1020 30.12 850 25.1 21.8 71.3 37 6.8 44.2
08:05 1020 30.12 850 25.1 22.3 72.2 36 6.9 44.4
08:10 1020 30.12 850 25.1 22.5 72.4 35 6.3 43.3
08:15 1020 30.12 849 25.07 22.6 72.7 34 6.3 43.4
08:20 1020 30.12 849 25.07 23 73.3 32 5.7 42.2
08:25 1020 30.12 849 25.07 23.1 73.6 31 5.3 41.5
08:30 1020 30.12 849 25.07 23.4 74.1 32 6.1 43
08:35 1020 30.12 849 25.07 23.8 74.8 31 5.7 42.2
08:40 1020 30.12 849 25.07 24.1 75.4 31 6 42.9
08:45 1020 30.12 849 25.07 24.6 76.2 30 6.3 43.3
08:50 1020 30.12 849 25.07 24.6 76.3 32 7.1 44.7
08:55 1020 30.12 849 25.07 24 75.1 32 6.5 43.6
09:00 1020 30.12 849 25.07 24.5 76.1 31 6.6 43.9
09:05 1020 30.12 849 25.07 24.7 76.5 31 6.5 43.7
09:10 1020 30.12 849 25.07 25.1 77.1 31 7.2 45
09:15 1020 30.12 849 25.07 24.9 76.8 31 7 44.5
09:20 1020 30.12 849 25.07 25 76.9 31 7.1 44.7
09:25 1020 30.12 849 25.07 25.8 78.4 29 6.8 44.3
09:30 1020 30.12 849 25.07 25.3 77.6 29 6.2 43.1
09:35 1020 30.12 849 25.07 26.1 79.1 27 6.2 43.1
09:40 1020 30.12 849 25.07 26.7 80.1 28 7.1 44.7
09:45 1020 30.12 849 25.07 27 80.5 30 8 46.5
09:50 1020 30.12 849 25.07 26.8 80.2 28 6.8 44.3
09:55 1020 30.12 849 25.07 25.8 78.4 29 6.4 43.6
10:00 1020 30.12 849 25.07 26.2 79.1 28 6.6 43.8
10:05 1020 30.12 849 25.07 26.5 79.6 26 5.8 42.4
10:10 1020 30.12 849 25.07 27.6 81.6 26 6.4 43.6
10:15 1020 30.12 849 25.07 26.4 79.5 27 6.1 43.1
10:20 1020 30.12 849 25.07 26.5 79.6 25 5.3 41.5
10:25 1020 30.12 849 25.07 28 82.3 23 5.5 41.8
10:30 1020 30.12 849 25.07 28.3 82.9 21 3.9 39
10:35 1020 30.12 849 25.07 28.7 83.7 20 3.7 38.7
10:40 1020 30.12 849 25.07 28.8 83.9 18 2.9 37.1
10:45 1019 30.09 849 25.07 28.3 82.9 24 6 42.7
10:50 1019 30.09 849 25.07 29 84.1 23 6 42.7
10:55 1019 30.09 849 25.07 29.3 84.7 21 5.2 41.3
11:00 1019 30.09 849 25.07 28.6 83.5 22 5.4 41.8
11:05 1019 30.09 848 25.04 28.8 83.9 21 4.5 40.1
11:10 1019 30.09 848 25.04 29.5 85 19 3.7 38.7
11:15 1019 30.09 848 25.04 30.1 86.2 20 5.1 41.2
11:20 1019 30.09 848 25.04 30 86 20 5.2 41.3
11:25 1019 30.09 848 25.04 29 84.2 21 4.9 40.9
11:30 1019 30.09 848 25.04 29.1 84.4 20 4 39.1
11:35 1019 30.09 848 25.04 29 84.1 20 4.2 39.5
11:40 1019 30.09 848 25.04 29.9 85.7 16 2 35.6
11:45 1019 30.09 848 25.04 30.8 87.4 15 1.2 34.2
11:50 1019 30.09 848 25.04 31.3 88.3 15 1.7 35.1
11:55 1019 30.09 848 25.04 31.7 89.1 14 0.9 33.7
12:00 1019 30.09 848 25.04 31.9 89.4 13 0.5 32.8
12:05 1019 30.09 848 25.04 32 89.6 12 -0.4 31.3
12:10 1019 30.09 848 25.04 32 89.5 12 -0.2 31.7
12:15 1019 30.09 848 25.04 32 89.5 13 0.1 32.2
12:20 1018 30.06 848 25.04 31.1 88 13 -0 31.9
12:25 1018 30.06 848 25.04 30.8 87.5 12 -1.2 29.8
12:30 1018 30.06 848 25.04 30.8 87.4 12 -1.5 29.2
12:35 1018 30.06 847 25.01 31.4 88.5 12 -0.6 30.9
12:40 1018 30.06 847 25.01 31.1 87.9 12 -1.4 29.5
12:45 1018 30.06 847 25.01 31 87.8 13 -0.5 31.1
12:50 1018 30.06 847 25.01 31.7 89.1 12 -1.2 29.8
12:55 1018 30.06 847 25.01 32.1 89.8 12 -1 30.3
13:00 1018 30.06 847 25.01 32.4 90.2 12 -0.8 30.6
13:05 1018 30.06 847 25.01 32.4 90.4 11 -1.3 29.7
13:10 1018 30.06 847 25.01 33 91.4 11 -1.1 30
13:15 1018 30.06 847 25.01 33.1 91.6 11 -0.7 30.8
13:20 1018 30.06 847 25.01 32.8 91.1 12 -0.3 31.4
13:25 1018 30.06 847 25.01 33.5 92.2 11 -1 30.1
13:30 1018 30.06 847 25.01 32.5 90.5 11 -1 30.2
13:35 1018 30.06 847 25.01 31.6 88.8 13 0.4 32.7
13:40 1018 30.06 847 25.01 31.2 88.2 12 -0.7 30.7
13:45 1018 30.06 847 25.01 31.9 89.4 12 -0.4 31.3
13:50 1018 30.06 847 25.01 32.4 90.3 12 -0.5 31
13:55 1018 30.06 847 25.01 33 91.3 11 -0.8 30.6
14:00 1018 30.06 847 25.01 33 91.3 10 -1.7 29
14:05 1017 30.03 847 25.01 31.8 89.3 11 -1.8 28.8
14:10 1017 30.03 847 25.01 32.8 91.1 12 -0.4 31.2
14:15 1017 30.03 847 25.01 32.6 90.7 12 -0 32
14:20 1017 30.03 847 25.01 32 89.6 12 -1.1 30
14:25 1017 30.03 847 25.01 31.7 89 12 -1.2 29.8
14:30 1017 30.03 847 25.01 31.8 89.3 12 -1.3 29.7
14:35 1017 30.03 847 25.01 31.4 88.4 13 -0.3 31.5
14:40 1017 30.03 847 25.01 31.7 89.1 13 -0.1 31.8
14:45 1017 30.03 847 25.01 31.8 89.2 13 -0.1 31.8
14:50 1017 30.03 847 25.01 31.7 89 14 0.9 33.7
14:55 1017 30.03 847 25.01 31.1 88.1 15 1.9 35.5
15:00 1017 30.03 847 25.01 31 87.8 15 1.3 34.3
15:05 1017 30.03 846 24.98 30.7 87.3 17 2.9 37.3
15:10 1017 30.03 846 24.98 30.1 86.2 17 2.8 37
15:15 1017 30.03 846 24.98 30.1 86.1 16 1.6 35
15:20 1017 30.03 846 24.98 29.8 85.7 15 1.2 34.1
15:25 1017 30.03 846 24.98 29.8 85.6 15 0.9 33.6
15:30 1017 30.03 846 24.98 29.9 85.9 15 0.9 33.6
15:35 1017 30.03 846 24.98 29.9 85.9 15 1.1 34
15:40 1017 30.03 846 24.98 30 85.9 14 0.3 32.6
15:45 1017 30.03 846 24.98 30 85.9 15 0.6 33.1
15:50 1017 30.03 846 24.98 29.9 85.8 14 -0.3 31.5
15:55 1017 30.03 846 24.98 29.4 85 16 1.4 34.5
16:00 1017 30.03 847 25.01 28.8 83.8 20 3.7 38.6
16:05 1017 30.03 846 24.98 28.6 83.6 13 -2.4 27.6
16:10 1017 30.03 847 25.01 29.1 84.4 12 -3.1 26.5
16:15 1018 30.06 847 25.01 29.5 85.2 12 -2.7 27.2
16:20 1017 30.03 847 25.01 29.8 85.7 12 -2.3 27.8
16:25 1017 30.03 846 24.98 30 85.9 12 -1.8 28.7
16:30 1017 30.03 846 24.98 30 85.9 15 0.8 33.4
16:35 1017 30.03 846 24.98 29.1 84.3 17 1.8 35.3
16:40 1017 30.03 846 24.98 28.6 83.6 17 1.9 35.4
16:45 1017 30.03 846 24.98 28.9 84 17 1.7 35.1
16:50 1017 30.03 846 24.98 29.3 84.7 18 3.1 37.6
16:55 1017 30.03 846 24.98 29.6 85.2 20 4.6 40.3
17:00 1017 30.03 846 24.98 29.7 85.4 19 3.9 39
17:05 1017 30.03 846 24.98 30 86 15 1 33.9
17:10 1017 30.03 846 24.98 30.2 86.4 14 -0.1 31.9
17:15 1017 30.03 846 24.98 30.4 86.8 14 0.6 33.2
17:20 1016 30 846 24.98 30.7 87.2 15 1.7 35.1
17:25 1016 30 846 24.98 31 87.7 15 1.5 34.7
17:30 1016 30 846 24.98 30.4 86.7 15 1 33.8
17:35 1016 30 846 24.98 30.2 86.3 14 0.2 32.4
17:40 1016 30 846 24.98 30.4 86.7 14 0.6 33
17:45 1016 30 846 24.98 30.6 87.1 15 1.1 34
17:50 1016 30 846 24.98 30.6 87 16 2.6 36.6
17:55 1016 30 846 24.98 30.7 87.3 16 2.1 35.8
18:00 1016 30 846 24.98 30.7 87.3 18 3.8 38.9
18:05 1016 30 845 24.95 30.7 87.2 17 3.2 37.7
18:10 1016 30 845 24.95 30.9 87.5 15 1.9 35.5
18:15 1016 30 845 24.95 31.1 87.9 15 1.6 34.9
18:20 1016 30 845 24.95 31.7 89 14 1.2 34.1
18:25 1016 30 845 24.95 31.5 88.6 14 0.7 33.2
18:30 1016 30 845 24.95 31 87.7 15 1.9 35.3
18:35 1016 30 845 24.95 30.8 87.4 15 1.2 34.1
18:40 1016 30 845 24.95 30.6 87 15 1.2 34.1
18:45 1016 30 845 24.95 30.4 86.8 18 3.7 38.7
18:50 1016 30 845 24.95 30.3 86.5 15 1.1 33.9
18:55 1016 30 845 24.95 30.2 86.3 16 1.5 34.7
19:00 1016 30 845 24.95 30 86 17 2.7 36.8
19:05 1016 30 845 24.95 29.7 85.5 18 3.4 38.1
19:10 1016 30 846 24.98 29.4 85 23 6.7 44
19:15 1016 30 846 24.98 28.9 84 27 8.2 46.8
19:20 1016 30 846 24.98 28.2 82.7 28 8.4 47.2
19:25 1016 30 846 24.98 27.8 82 31 9.5 49
19:30 1016 30 846 24.98 27.6 81.7 31 9.2 48.6
19:35 1016 30 846 24.98 27.6 81.6 27 7.3 45.2
19:40 1017 30.03 846 24.98 27.6 81.6 30 8.5 47.3
19:45 1017 30.03 846 24.98 26.9 80.5 29 7.5 45.5
19:50 1017 30.03 846 24.98 26.4 79.6 27 6.5 43.6
19:55 1017 30.03 846 24.98 26.3 79.3 29 7.3 45.1
20:00 1017 30.03 846 24.98 25.7 78.3 26 5.1 41.2
20:05 1017 30.03 846 24.98 25.8 78.5 26 4.9 40.7
20:10 1017 30.03 846 24.98 25.9 78.7 27 5.9 42.6
20:15 1017 30.03 846 24.98 25.9 78.7 28 6.2 43.2
20:20 1017 30.03 846 24.98 25.7 78.2 28 6.3 43.3
20:25 1017 30.03 846 24.98 25.5 77.9 24 3.5 38.4
20:30 1017 30.03 846 24.98 25.5 77.9 24 3.7 38.7
20:35 1017 30.03 846 24.98 25.3 77.5 25 4.2 39.5
20:40 1017 30.03 846 24.98 25 76.9 27 4.8 40.7
20:45 1017 30.03 846 24.98 24.6 76.3 27 4.8 40.6
20:50 1017 30.03 847 25.01 24.4 75.9 28 4.8 40.7
20:55 1017 30.03 847 25.01 24.3 75.7 28 4.7 40.5
21:00 1018 30.06 847 25.01 24.1 75.4 30 5.6 42.1
21:05 1018 30.06 847 25.01 23.9 75.1 30 5.7 42.2
21:10 1018 30.06 847 25.01 23.8 74.8 28 4.4 39.9
21:15 1018 30.06 847 25.01 23.6 74.4 27 3.6 38.5
21:20 1018 30.06 847 25.01 23.8 74.9 27 3.9 39.1
21:25 1018 30.06 847 25.01 23.8 74.8 26 3.3 37.9
21:30 1018 30.06 847 25.01 23.7 74.7 25 2.6 36.7
21:35 1018 30.06 847 25.01 23.8 74.8 26 3.4 38.1
21:40 1018 30.06 847 25.01 23.7 74.6 26 3 37.5
21:45 1018 30.06 847 25.01 23.6 74.4 25 2.6 36.7
21:50 1018 30.06 847 25.01 23.6 74.5 22 0.6 33
21:55 1018 30.06 847 25.01 24.7 76.5 20 0.5 33
22:00 1018 30.06 847 25.01 25 76.9 20 0.9 33.6
22:05 1018 30.06 847 25.01 24.7 76.5 22 1.7 35
22:10 1018 30.06 847 25.01 24.6 76.3 21 0.8 33.5
22:15 1018 30.06 847 25.01 24.9 76.7 21 1.3 34.3
22:20 1018 30.06 848 25.04 24.6 76.3 22 2 35.5
22:25 1018 30.06 848 25.04 24.4 75.8 23 2 35.7
22:30 1018 30.06 848 25.04 24.2 75.5 24 2.5 36.5
22:35 1019 30.09 848 25.04 23.9 75 24 2.2 36
22:40 1019 30.09 848 25.04 23.8 74.9 25 2.6 36.7
22:45 1019 30.09 848 25.04 23.8 74.8 25 2.7 36.8
22:50 1019 30.09 848 25.04 23.7 74.7 25 2.8 37.1
22:55 1019 30.09 848 25.04 23.7 74.6 25 3 37.3
23:00 1019 30.09 848 25.04 23.6 74.5 26 3.5 38.2
23:05 1019 30.09 848 25.04 23.4 74.1 27 3.6 38.5
23:10 1019 30.09 849 25.07 23 73.5 29 4.3 39.7
23:15 1019 30.09 849 25.07 22.5 72.5 29 3.8 38.9
23:20 1020 30.12 849 25.07 22 71.6 31 4.3 39.7
23:25 1020 30.12 849 25.07 21.8 71.3 31 4.1 39.4
23:30 1020 30.12 849 25.07 21.8 71.2 30 3.7 38.7
23:35 1020 30.12 849 25.07 22 71.6 31 4.2 39.5
23:40 1020 30.12 849 25.07 21.5 70.6 33 4.7 40.5
23:45 1020 30.12 849 25.07 20.7 69.2 39 6.2 43.2
23:50 1020 30.12 849 25.07 20 68 40 6.3 43.3
23:55 1020 30.12 849 25.07 20 68 42 7 44.5
24:00 1020 30.12 850 25.1 19.4 67 46 7.6 45.7